Data for 03/04/2017

Time Sea-Level Adjusted Pressure Absolute Pressure Temperature Relative Humidity Dew Point   
(mb) (inHg) (mb) (inHg) (C) (F) (%) (C) (F)
00:05 1010 29.83 840 24.81 6.2 43.2 25 -12.2 10
00:10 1011 29.85 840 24.81 6.3 43.3 26 -11.9 10.6
00:15 1010 29.83 840 24.81 6.1 43 26 -12 10.5
00:20 1010 29.83 840 24.81 6.2 43.2 25 -12.3 9.9
00:25 1010 29.83 840 24.81 6.3 43.4 25 -12.3 9.8
00:30 1010 29.83 840 24.81 6.5 43.6 23 -13.3 8
00:35 1010 29.83 839 24.78 6.8 44.2 23 -13 8.5
00:40 1010 29.83 839 24.78 6.8 44.2 22 -13.6 7.5
00:45 1010 29.83 839 24.78 6.7 44.1 24 -12.5 9.5
00:50 1010 29.83 839 24.78 6.3 43.3 26 -11.7 10.9
00:55 1010 29.83 839 24.78 5.8 42.4 26 -12.2 10.1
01:00 1010 29.83 839 24.78 6 42.8 25 -12.5 9.4
01:05 1010 29.83 839 24.78 6.4 43.4 23 -13.3 8
01:10 1010 29.83 839 24.78 7.1 44.9 24 -11.9 10.5
01:15 1010 29.83 839 24.78 6.5 43.7 25 -12.2 10
01:20 1010 29.83 839 24.78 6 42.8 27 -11.8 10.8
01:25 1010 29.83 839 24.78 5.8 42.4 28 -11.6 11.2
01:30 1010 29.83 839 24.78 5.6 42.1 27 -12 10.4
01:35 1010 29.83 839 24.78 5.9 42.7 26 -12 10.5
01:40 1010 29.83 839 24.78 7.3 45.2 24 -12 10.4
01:45 1010 29.83 839 24.78 8 46.3 24 -11.5 11.3
01:50 1010 29.83 839 24.78 8 46.5 24 -11.6 11.1
01:55 1010 29.83 839 24.78 7.9 46.3 24 -11.5 11.4
02:00 1010 29.83 839 24.78 7.8 46.1 24 -11.5 11.4
02:05 1010 29.83 839 24.78 7.8 46.1 24 -11.8 10.8
02:10 1010 29.83 839 24.78 8 46.4 24 -11.6 11
02:15 1010 29.83 839 24.78 8 46.5 24 -11.3 11.6
02:20 1010 29.83 839 24.78 7.9 46.3 25 -11 12.1
02:25 1010 29.83 839 24.78 7.6 45.8 25 -11.3 11.6
02:30 1010 29.83 839 24.78 7.7 45.8 25 -11.2 11.9
02:35 1010 29.83 839 24.78 7.6 45.7 26 -10.8 12.6
02:40 1010 29.83 839 24.78 7.4 45.4 26 -11 12.2
02:45 1010 29.83 839 24.78 7.6 45.8 26 -10.5 13.1
02:50 1010 29.83 839 24.78 7.7 45.8 30 -8.9 15.9
02:55 1010 29.83 839 24.78 7.2 45 32 -8.2 17.2
03:00 1010 29.83 839 24.78 6.9 44.5 32 -8.6 16.5
03:05 1009 29.8 839 24.78 7.1 44.7 32 -8.7 16.3
03:10 1009 29.8 839 24.78 7.2 44.9 32 -8.6 16.5
03:15 1009 29.8 839 24.78 7.1 44.8 32 -8.7 16.4
03:20 1009 29.8 839 24.78 7.1 44.7 32 -8.5 16.7
03:25 1009 29.8 839 24.78 7.1 44.7 31 -8.8 16.2
03:30 1009 29.8 838 24.75 7.1 44.8 29 -9.9 14.1
03:35 1009 29.8 838 24.75 7.3 45.1 25 -11.3 11.6
03:40 1009 29.8 838 24.75 7.7 45.8 24 -11.8 10.8
03:45 1009 29.8 839 24.78 7.8 46 25 -11.3 11.7
03:50 1009 29.8 839 24.78 7.6 45.7 26 -10.8 12.6
03:55 1009 29.8 838 24.75 7.6 45.6 27 -10.5 13.2
04:00 1009 29.8 838 24.75 7.5 45.6 29 -9.4 15.1
04:05 1009 29.8 838 24.75 7.4 45.2 30 -9 15.8
04:10 1009 29.8 838 24.75 7.3 45.2 30 -9.1 15.6
04:15 1009 29.8 838 24.75 7.4 45.3 30 -9.2 15.5
04:20 1009 29.8 838 24.75 7.6 45.6 29 -9.4 15
04:25 1009 29.8 838 24.75 7.5 45.5 29 -9.3 15.3
04:30 1009 29.8 838 24.75 7.5 45.5 25 -11.4 11.5
04:35 1009 29.8 838 24.75 7.7 45.9 25 -11.1 12
04:40 1009 29.8 838 24.75 7.9 46.1 25 -11 12.2
04:45 1009 29.8 838 24.75 8 46.3 24 -11.4 11.5
04:50 1009 29.8 838 24.75 8 46.4 24 -11.1 11.9
04:55 1009 29.8 838 24.75 7.7 45.9 25 -11.3 11.6
05:00 1009 29.8 838 24.75 7.8 46.1 25 -11.1 11.9
05:05 1009 29.8 838 24.75 7.5 45.4 31 -8.5 16.7
05:10 1009 29.8 838 24.75 6.6 43.9 32 -8.9 16.1
05:15 1009 29.8 838 24.75 6.5 43.7 33 -8.7 16.4
05:20 1009 29.8 838 24.75 6.3 43.4 34 -8.5 16.8
05:25 1009 29.8 838 24.75 6.1 43.1 34 -8.6 16.5
05:30 1009 29.8 838 24.75 6 42.7 34 -8.9 16.1
05:35 1009 29.8 838 24.75 6 42.7 34 -8.7 16.3
05:40 1009 29.8 838 24.75 6 42.8 34 -8.9 16
05:45 1009 29.8 838 24.75 6 42.7 36 -7.9 17.8
05:50 1009 29.8 838 24.75 5.4 41.8 39 -7.5 18.5
05:55 1009 29.8 838 24.75 5.2 41.4 40 -7.4 18.6
06:00 1009 29.8 838 24.75 5.4 41.7 37 -8.2 17.3
06:05 1009 29.8 838 24.75 5.5 42 39 -7.2 19.1
06:10 1009 29.8 838 24.75 5 41.1 39 -7.6 18.3
06:15 1009 29.8 838 24.75 5.6 42.1 37 -8 17.5
06:20 1009 29.8 838 24.75 5.7 42.3 38 -7.6 18.4
06:25 1009 29.8 838 24.75 5.5 42 36 -8.5 16.6
06:30 1009 29.8 838 24.75 5.6 42 37 -7.8 17.9
06:35 1009 29.8 838 24.75 6.1 42.9 33 -9 15.9
06:40 1009 29.8 838 24.75 6.3 43.4 33 -9 15.8
06:45 1009 29.8 838 24.75 6.7 44.1 31 -9.4 15
06:50 1009 29.8 838 24.75 7.1 44.7 31 -9.1 15.6
06:55 1009 29.8 838 24.75 7.1 44.7 29 -9.6 14.8
07:00 1009 29.8 838 24.75 7.1 44.8 32 -8.6 16.5
07:05 1008 29.77 838 24.75 7 44.5 32 -8.6 16.5
07:10 1008 29.77 838 24.75 6.4 43.5 34 -8.5 16.7
07:15 1008 29.77 838 24.75 6.1 43 34 -8.5 16.7
07:20 1008 29.77 838 24.75 6 42.7 34 -8.8 16.1
07:25 1008 29.77 838 24.75 6.2 43.1 34 -8.5 16.7
07:30 1008 29.77 838 24.75 6.2 43.2 32 -9.1 15.6
07:35 1008 29.77 838 24.75 6.4 43.6 32 -9.2 15.4
07:40 1008 29.77 838 24.75 6.5 43.6 33 -8.7 16.4
07:45 1008 29.77 838 24.75 6.4 43.5 32 -9.2 15.4
07:50 1008 29.77 838 24.75 6.6 43.8 31 -9.4 15
07:55 1008 29.77 838 24.75 6.7 44 31 -9.2 15.4
08:00 1009 29.8 838 24.75 6.7 44 31 -9.1 15.6
08:05 1009 29.8 838 24.75 6.5 43.7 32 -8.9 15.9
08:10 1009 29.8 838 24.75 6.3 43.4 33 -8.8 16.2
08:15 1009 29.8 838 24.75 6 42.8 35 -8.4 16.9
08:20 1009 29.8 838 24.75 5.8 42.5 35 -8.4 16.8
08:25 1009 29.8 838 24.75 5.9 42.7 33 -9 15.9
08:30 1009 29.8 838 24.75 6.4 43.4 29 -10.4 13.2
08:35 1009 29.8 838 24.75 6.7 44.1 33 -8.4 17
08:40 1009 29.8 838 24.75 6.4 43.4 33 -8.8 16.2
08:45 1009 29.8 838 24.75 6.3 43.3 34 -8.3 17
08:50 1009 29.8 838 24.75 6.1 43 34 -8.5 16.6
08:55 1009 29.8 838 24.75 6.3 43.3 33 -8.7 16.3
09:00 1009 29.8 838 24.75 6.6 43.9 31 -9.5 14.9
09:05 1009 29.8 838 24.75 6.7 44.1 31 -9 15.7
09:10 1009 29.8 838 24.75 6.8 44.3 30 -9.4 15
09:15 1009 29.8 838 24.75 6.8 44.3 32 -8.9 16.1
09:20 1009 29.8 838 24.75 6.7 44 31 -9.5 15
09:25 1009 29.8 838 24.75 6.7 44.1 33 -8.2 17.2
09:30 1009 29.8 838 24.75 6.7 44.1 36 -7.4 18.7
09:35 1009 29.8 838 24.75 6.7 44.1 36 -7.4 18.7
09:40 1009 29.8 838 24.75 6.6 43.9 36 -7.2 19
09:45 1009 29.8 838 24.75 6.6 43.8 37 -7 19.3
09:50 1009 29.8 838 24.75 6.5 43.7 38 -6.9 19.6
09:55 1009 29.8 838 24.75 6.5 43.7 37 -7 19.3
10:00 1009 29.8 838 24.75 6.6 43.9 37 -7 19.4
10:05 1009 29.8 838 24.75 6.7 44.1 37 -6.9 19.6
10:10 1009 29.8 838 24.75 6.8 44.2 38 -6.7 19.9
10:15 1009 29.8 838 24.75 6.9 44.4 36 -7 19.3
10:20 1009 29.8 838 24.75 7 44.6 36 -7 19.4
10:25 1009 29.8 838 24.75 7.1 44.8 34 -7.6 18.3
10:30 1009 29.8 838 24.75 7.2 45 35 -7.4 18.7
10:35 1008 29.77 838 24.75 7.4 45.3 34 -7.5 18.5
10:40 1008 29.77 838 24.75 7.5 45.5 33 -7.6 18.3
10:45 1008 29.77 837 24.72 7.6 45.8 33 -7.5 18.5
10:50 1008 29.77 837 24.72 8 46.3 33 -7.3 18.9
10:55 1008 29.77 837 24.72 8 46.5 33 -7.2 19
11:00 1008 29.77 837 24.72 8 46.3 35 -6.7 20
11:05 1008 29.77 837 24.72 8 46.4 33 -7.2 19
11:10 1008 29.77 837 24.72 7.9 46.3 32 -7.6 18.3
11:15 1008 29.77 837 24.72 8.1 46.5 32 -7.6 18.3
11:20 1008 29.77 837 24.72 8.3 47 30 -8 17.5
11:25 1008 29.77 837 24.72 8.4 47.1 31 -7.6 18.2
11:30 1008 29.77 837 24.72 8.5 47.4 32 -7.1 19.3
11:35 1008 29.77 837 24.72 8.4 47.1 33 -6.8 19.7
11:40 1008 29.77 837 24.72 8 46.5 35 -6.4 20.4
11:45 1008 29.77 837 24.72 8 46.4 37 -6 21.3
11:50 1008 29.77 837 24.72 7.8 46.1 37 -5.9 21.4
11:55 1008 29.77 837 24.72 7.7 45.9 35 -6.8 19.7
12:00 1008 29.77 837 24.72 7.8 46.1 37 -5.9 21.4
12:05 1008 29.77 837 24.72 7.7 45.8 39 -5.3 22.5
12:10 1008 29.77 837 24.72 7.6 45.6 38 -5.8 21.6
12:15 1008 29.77 837 24.72 7.8 46.1 39 -5.4 22.3
12:20 1008 29.77 837 24.72 7.9 46.1 39 -5.3 22.5
12:25 1008 29.77 837 24.72 7.7 45.9 39 -5.3 22.4
12:30 1008 29.77 837 24.72 7.7 45.9 40 -5.1 22.8
12:35 1008 29.77 837 24.72 8 46.3 39 -5 23
12:40 1008 29.77 837 24.72 8.3 46.9 38 -5.2 22.7
12:45 1008 29.77 837 24.72 8.3 46.9 39 -4.9 23.2
12:50 1008 29.77 837 24.72 8.2 46.7 37 -5.5 22
12:55 1008 29.77 837 24.72 8.4 47.2 37 -5.3 22.5
13:00 1008 29.77 837 24.72 8.1 46.6 40 -4.7 23.5
13:05 1008 29.77 837 24.72 8 46.4 40 -4.9 23.2
13:10 1008 29.77 837 24.72 7.9 46.3 40 -5 23
13:15 1008 29.77 837 24.72 7.8 46.1 41 -4.7 23.6
13:20 1008 29.77 837 24.72 7.6 45.6 41 -4.8 23.4
13:25 1008 29.77 837 24.72 7.5 45.5 42 -4.7 23.6
13:30 1008 29.77 837 24.72 7.4 45.3 43 -4.3 24.3
13:35 1008 29.77 837 24.72 7.4 45.3 42 -4.6 23.6
13:40 1008 29.77 837 24.72 7.4 45.3 43 -4.5 23.9
13:45 1008 29.77 837 24.72 7.3 45.2 43 -4.6 23.8
13:50 1008 29.77 837 24.72 7.4 45.4 41 -4.9 23.1
13:55 1008 29.77 837 24.72 7.3 45.2 44 -4.1 24.6
14:00 1008 29.77 837 24.72 7.3 45.1 42 -4.8 23.3
14:05 1008 29.77 837 24.72 7.3 45.1 42 -4.8 23.4
14:10 1007 29.74 837 24.72 7.3 45.1 43 -4.3 24.2
14:15 1007 29.74 837 24.72 7.3 45.1 45 -3.8 25.1
14:20 1007 29.74 837 24.72 7.3 45.1 44 -4.1 24.6
14:25 1008 29.77 837 24.72 7.2 44.9 46 -3.8 25.2
14:30 1008 29.77 837 24.72 6.8 44.3 47 -3.8 25.2
14:35 1008 29.77 837 24.72 6.7 44.1 46 -4 24.8
14:40 1008 29.77 837 24.72 6.6 44 47 -3.9 24.9
14:45 1008 29.77 837 24.72 6.8 44.2 48 -3.5 25.7
14:50 1008 29.77 837 24.72 7.1 44.8 46 -3.8 25.1
14:55 1008 29.77 837 24.72 7.3 45.2 44 -4 24.7
15:00 1008 29.77 837 24.72 7.3 45.2 44 -4.2 24.5
15:05 1008 29.77 837 24.72 7.1 44.8 42 -4.9 23.2
15:10 1008 29.77 837 24.72 7 44.7 42 -4.9 23.2
15:15 1007 29.74 837 24.72 7.1 44.7 42 -5 23.1
15:20 1007 29.74 837 24.72 7.2 45 41 -5.1 22.7
15:25 1007 29.74 837 24.72 7.3 45.1 39 -5.7 21.7
15:30 1007 29.74 836 24.69 7.3 45.1 39 -5.7 21.7
15:35 1007 29.74 836 24.69 7.4 45.3 39 -5.5 22.1
15:40 1007 29.74 836 24.69 7.3 45.2 40 -5.4 22.3
15:45 1007 29.74 836 24.69 7.4 45.4 39 -5.5 22
15:50 1007 29.74 836 24.69 7.4 45.4 38 -5.9 21.3
15:55 1007 29.74 836 24.69 7.4 45.3 38 -6.1 21.1
16:00 1007 29.74 836 24.69 7.2 44.9 37 -6.5 20.4
16:05 1007 29.74 836 24.69 7 44.7 37 -6.5 20.2
16:10 1007 29.74 836 24.69 7.1 44.8 37 -6.4 20.4
16:15 1007 29.74 836 24.69 7.3 45.2 37 -6.5 20.3
16:20 1007 29.74 836 24.69 7.4 45.4 36 -6.6 20.1
16:25 1007 29.74 836 24.69 7.9 46.1 32 -7.6 18.3
16:30 1006 29.71 836 24.69 8 46.4 32 -7.6 18.2
16:35 1006 29.71 836 24.69 8.1 46.6 31 -7.8 18
16:40 1007 29.74 836 24.69 8.1 46.5 31 -8.2 17.3
16:45 1007 29.74 836 24.69 8.1 46.5 31 -8 17.6
16:50 1007 29.74 836 24.69 8 46.5 31 -7.9 17.7
16:55 1007 29.74 836 24.69 7.7 45.8 32 -8.2 17.3
17:00 1007 29.74 836 24.69 7.9 46.1 32 -7.9 17.7
17:05 1007 29.74 836 24.69 7.7 45.9 31 -8.4 16.9
17:10 1007 29.74 836 24.69 7.6 45.8 31 -8.2 17.2
17:15 1006 29.71 836 24.69 7.6 45.7 31 -8.5 16.6
17:20 1006 29.71 836 24.69 7.6 45.7 32 -8.1 17.5
17:25 1006 29.71 836 24.69 7.6 45.6 33 -7.9 17.9
17:30 1006 29.71 836 24.69 7.6 45.7 31 -8.4 16.9
17:35 1006 29.71 835 24.66 7.5 45.5 32 -8.3 17.1
17:40 1006 29.71 835 24.66 7.2 45 32 -8.5 16.8
17:45 1006 29.71 835 24.66 7 44.7 32 -8.7 16.3
17:50 1006 29.71 835 24.66 6.9 44.5 32 -8.7 16.4
17:55 1006 29.71 835 24.66 6.9 44.4 32 -8.8 16.1
18:00 1006 29.71 835 24.66 6.9 44.3 31 -8.9 15.9
18:05 1006 29.71 835 24.66 6.7 44.1 33 -8.5 16.7
18:10 1006 29.71 835 24.66 6.8 44.2 31 -9.2 15.4
18:15 1006 29.71 835 24.66 6.8 44.3 31 -9.2 15.5
18:20 1006 29.71 835 24.66 6.7 44.1 31 -9.1 15.6
18:25 1006 29.71 835 24.66 6.7 44.1 31 -9.3 15.3
18:30 1006 29.71 835 24.66 6.7 44 30 -9.6 14.7
18:35 1006 29.71 835 24.66 6.8 44.2 30 -9.5 14.9
18:40 1006 29.71 835 24.66 6.9 44.3 29 -10 14
18:45 1006 29.71 835 24.66 7 44.7 30 -9.5 14.9
18:50 1006 29.71 835 24.66 6.9 44.4 29 -10 13.9
18:55 1006 29.71 835 24.66 6.8 44.3 29 -9.9 14.2
19:00 1006 29.71 835 24.66 6.8 44.2 29 -10.1 13.8
19:05 1006 29.71 835 24.66 6.9 44.3 28 -10.4 13.2
19:10 1006 29.71 835 24.66 7.1 44.8 27 -10.8 12.6
19:15 1006 29.71 835 24.66 7.2 44.9 26 -11 12.2
19:20 1006 29.71 835 24.66 7.2 44.9 26 -11.2 11.9
19:25 1006 29.71 835 24.66 7.1 44.7 27 -10.7 12.8
19:30 1006 29.71 835 24.66 7 44.6 26 -11.3 11.7
19:35 1006 29.71 835 24.66 7.1 44.7 25 -11.5 11.3
19:40 1006 29.71 835 24.66 6.9 44.4 25 -11.6 11.2
19:45 1006 29.71 835 24.66 6.9 44.3 24 -12.3 9.9
19:50 1006 29.71 835 24.66 7.1 44.9 24 -12.3 9.8
19:55 1006 29.71 835 24.66 7.1 44.8 25 -11.6 11.2
20:00 1006 29.71 835 24.66 7 44.5 24 -12.2 10.1
20:05 1006 29.71 835 24.66 7.1 44.8 23 -12.7 9.2
20:10 1006 29.71 835 24.66 7.2 45 21 -13.6 7.5
20:15 1006 29.71 835 24.66 7.2 45 24 -12.2 10
20:20 1006 29.71 835 24.66 7 44.6 22 -13.2 8.2
20:25 1006 29.71 835 24.66 7.1 44.7 22 -13.1 8.3
20:30 1006 29.71 835 24.66 7.1 44.8 22 -13.4 7.9
20:35 1006 29.71 835 24.66 7.1 44.8 23 -12.9 8.8
20:40 1006 29.71 835 24.66 6.9 44.4 23 -13 8.6
20:45 1006 29.71 835 24.66 6.9 44.5 23 -12.6 9.3
20:50 1006 29.71 835 24.66 6.9 44.4 23 -12.7 9.1
20:55 1005 29.68 835 24.66 6.8 44.2 23 -12.8 8.9
21:00 1005 29.68 835 24.66 6.7 44.1 22 -13.3 8
21:05 1005 29.68 835 24.66 6.9 44.4 23 -12.7 9.2
21:10 1005 29.68 834 24.63 6.8 44.2 25 -12.2 10.1
21:15 1005 29.68 835 24.66 6.6 43.9 24 -12.5 9.5
21:20 1005 29.68 835 24.66 6.7 44.1 23 -12.8 8.9
21:25 1005 29.68 835 24.66 6.8 44.2 25 -12 10.4
21:30 1005 29.68 834 24.63 6.8 44.2 24 -12.3 9.9
21:35 1005 29.68 835 24.66 6.9 44.3 24 -12.6 9.4
21:40 1005 29.68 835 24.66 6.8 44.3 24 -12.5 9.5
21:45 1005 29.68 835 24.66 6.8 44.2 24 -12.3 9.8
21:50 1005 29.68 835 24.66 6.8 44.2 24 -12.4 9.7
21:55 1005 29.68 835 24.66 6.6 43.9 24 -12.4 9.6
22:00 1005 29.68 834 24.63 6.6 43.9 25 -12.2 10.1
22:05 1005 29.68 834 24.63 6.6 43.8 24 -12.5 9.6
22:10 1005 29.68 834 24.63 6.5 43.7 25 -12.4 9.7
22:15 1005 29.68 834 24.63 6.6 43.9 25 -12.3 9.9
22:20 1005 29.68 834 24.63 6.7 44 24 -12.5 9.4
22:25 1005 29.68 834 24.63 6.6 43.9 24 -12.7 9.1
22:30 1005 29.68 834 24.63 6.8 44.2 23 -12.7 9.1
22:35 1005 29.68 834 24.63 6.7 44.1 25 -12.2 10.1
22:40 1005 29.68 834 24.63 6.5 43.8 24 -12.4 9.6
22:45 1005 29.68 834 24.63 6.5 43.8 25 -12.3 9.9
22:50 1005 29.68 834 24.63 6.5 43.8 24 -12.5 9.6
22:55 1005 29.68 834 24.63 6.5 43.7 25 -12.3 9.9
23:00 1005 29.68 834 24.63 6.5 43.8 24 -12.5 9.4
23:05 1005 29.68 834 24.63 6.6 43.9 24 -12.6 9.4
23:10 1005 29.68 834 24.63 6.7 44 24 -12.6 9.3
23:15 1005 29.68 834 24.63 6.7 44.1 24 -12.7 9.2
23:20 1005 29.68 834 24.63 6.7 44.1 23 -12.8 9
23:25 1004 29.65 834 24.63 6.9 44.5 23 -12.8 8.9
23:30 1004 29.65 834 24.63 7 44.6 23 -12.8 9
23:35 1004 29.65 834 24.63 7 44.6 23 -12.9 8.9
23:40 1004 29.65 834 24.63 7 44.6 23 -12.8 8.9
23:45 1004 29.65 834 24.63 7 44.6 23 -12.6 9.2
23:50 1004 29.65 834 24.63 6.9 44.5 23 -12.6 9.3
23:55 1004 29.65 833 24.6 7 44.6 23 -12.8 9
24:00 1004 29.65 833 24.6 6.8 44.3 24 -12.4 9.7